sensor_id;sensor_type;location;lat;lon;timestamp;temperature;humidity
45315;SHT31;31051;51.540;5.852;2023-11-19T00:08:51;13.3;91.5
45315;SHT31;31051;51.540;5.852;2023-11-19T00:21:50;13.4;91.1
45315;SHT31;31051;51.540;5.852;2023-11-19T00:34:50;13.4;90.5
45315;SHT31;31051;51.540;5.852;2023-11-19T00:47:49;13.6;89.8
45315;SHT31;31051;51.540;5.852;2023-11-19T01:00:48;13.6;89.9
45315;SHT31;31051;51.540;5.852;2023-11-19T01:13:48;13.5;90.0
45315;SHT31;31051;51.540;5.852;2023-11-19T01:26:47;13.5;89.4
45315;SHT31;31051;51.540;5.852;2023-11-19T01:39:46;13.6;88.7
45315;SHT31;31051;51.540;5.852;2023-11-19T01:52:46;13.5;88.5
45315;SHT31;31051;51.540;5.852;2023-11-19T02:05:45;13.4;88.0
45315;SHT31;31051;51.540;5.852;2023-11-19T02:18:44;13.3;88.7
45315;SHT31;31051;51.540;5.852;2023-11-19T02:31:44;13.3;88.1
45315;SHT31;31051;51.540;5.852;2023-11-19T02:44:43;13.2;87.3
45315;SHT31;31051;51.540;5.852;2023-11-19T02:57:42;13.2;87.8
45315;SHT31;31051;51.540;5.852;2023-11-19T03:10:42;13.1;87.2
45315;SHT31;31051;51.540;5.852;2023-11-19T03:23:41;12.9;86.7
45315;SHT31;31051;51.540;5.852;2023-11-19T03:36:41;12.7;86.2
45315;SHT31;31051;51.540;5.852;2023-11-19T03:49:40;12.5;85.9
45315;SHT31;31051;51.540;5.852;2023-11-19T04:02:39;12.6;83.5
45315;SHT31;31051;51.540;5.852;2023-11-19T04:15:39;12.5;84.5
45315;SHT31;31051;51.540;5.852;2023-11-19T04:28:38;12.5;86.0
45315;SHT31;31051;51.540;5.852;2023-11-19T04:41:37;12.5;84.7
45315;SHT31;31051;51.540;5.852;2023-11-19T04:54:37;12.5;84.7
45315;SHT31;31051;51.540;5.852;2023-11-19T05:07:36;12.4;84.2
45315;SHT31;31051;51.540;5.852;2023-11-19T05:20:35;12.3;84.5
45315;SHT31;31051;51.540;5.852;2023-11-19T05:33:35;12.4;82.3
45315;SHT31;31051;51.540;5.852;2023-11-19T05:46:34;12.3;82.1
45315;SHT31;31051;51.540;5.852;2023-11-19T05:59:33;12.2;82.3
45315;SHT31;31051;51.540;5.852;2023-11-19T06:12:33;12.2;82.5
45315;SHT31;31051;51.540;5.852;2023-11-19T06:25:32;11.9;83.4
45315;SHT31;31051;51.540;5.852;2023-11-19T06:38:31;11.9;82.7
45315;SHT31;31051;51.540;5.852;2023-11-19T06:51:31;11.7;83.2
45315;SHT31;31051;51.540;5.852;2023-11-19T07:04:30;11.8;82.5
45315;SHT31;31051;51.540;5.852;2023-11-19T07:17:29;11.7;82.1
45315;SHT31;31051;51.540;5.852;2023-11-19T07:30:29;11.7;82.0
45315;SHT31;31051;51.540;5.852;2023-11-19T07:43:28;11.7;82.1
45315;SHT31;31051;51.540;5.852;2023-11-19T07:56:27;11.7;81.8
45315;SHT31;31051;51.540;5.852;2023-11-19T08:09:27;11.9;81.4
45315;SHT31;31051;51.540;5.852;2023-11-19T08:22:26;12.0;81.2
45315;SHT31;31051;51.540;5.852;2023-11-19T08:35:25;12.1;80.8
45315;SHT31;31051;51.540;5.852;2023-11-19T08:48:25;12.2;80.8
45315;SHT31;31051;51.540;5.852;2023-11-19T09:01:24;12.3;80.5
45315;SHT31;31051;51.540;5.852;2023-11-19T09:14:23;12.5;80.5
45315;SHT31;31051;51.540;5.852;2023-11-19T09:27:23;12.6;79.9
45315;SHT31;31051;51.540;5.852;2023-11-19T09:40:22;12.9;78.7
45315;SHT31;31051;51.540;5.852;2023-11-19T09:53:21;13.1;77.7
45315;SHT31;31051;51.540;5.852;2023-11-19T10:06:21;13.3;76.6
45315;SHT31;31051;51.540;5.852;2023-11-19T10:19:20;13.3;76.0
45315;SHT31;31051;51.540;5.852;2023-11-19T10:32:19;13.3;75.7
45315;SHT31;31051;51.540;5.852;2023-11-19T10:45:19;13.6;74.2
45315;SHT31;31051;51.540;5.852;2023-11-19T10:58:18;13.7;74.1
45315;SHT31;31051;51.540;5.852;2023-11-19T11:11:17;13.8;75.1
45315;SHT31;31051;51.540;5.852;2023-11-19T11:24:17;13.6;75.0
45315;SHT31;31051;51.540;5.852;2023-11-19T11:37:16;13.5;74.2
45315;SHT31;31051;51.540;5.852;2023-11-19T11:50:15;12.9;78.3
45315;SHT31;31051;51.540;5.852;2023-11-19T12:03:15;12.7;78.9
45315;SHT31;31051;51.540;5.852;2023-11-19T12:16:14;13.2;79.4
45315;SHT31;31051;51.540;5.852;2023-11-19T12:29:13;13.5;76.4
45315;SHT31;31051;51.540;5.852;2023-11-19T12:42:13;13.6;76.1
45315;SHT31;31051;51.540;5.852;2023-11-19T12:55:12;13.7;75.6
45315;SHT31;31051;51.540;5.852;2023-11-19T13:08:12;13.3;76.2
45315;SHT31;31051;51.540;5.852;2023-11-19T13:21:11;13.3;75.6
45315;SHT31;31051;51.540;5.852;2023-11-19T13:34:10;13.0;78.8
45315;SHT31;31051;51.540;5.852;2023-11-19T13:47:10;12.4;82.7
45315;SHT31;31051;51.540;5.852;2023-11-19T14:00:09;12.6;81.8
45315;SHT31;31051;51.540;5.852;2023-11-19T14:13:08;12.5;81.5
45315;SHT31;31051;51.540;5.852;2023-11-19T14:26:08;12.5;81.1
45315;SHT31;31051;51.540;5.852;2023-11-19T14:39:07;12.3;82.4
45315;SHT31;31051;51.540;5.852;2023-11-19T14:52:06;12.4;81.9
45315;SHT31;31051;51.540;5.852;2023-11-19T15:05:06;12.1;83.2
45315;SHT31;31051;51.540;5.852;2023-11-19T15:18:05;12.1;82.8
45315;SHT31;31051;51.540;5.852;2023-11-19T15:31:04;11.8;85.8
45315;SHT31;31051;51.540;5.852;2023-11-19T15:44:04;11.4;88.7
45315;SHT31;31051;51.540;5.852;2023-11-19T15:57:03;11.3;89.4
45315;SHT31;31051;51.540;5.852;2023-11-19T16:10:02;11.5;86.7
45315;SHT31;31051;51.540;5.852;2023-11-19T16:23:02;11.4;87.3
45315;SHT31;31051;51.540;5.852;2023-11-19T16:36:01;11.5;87.3
45315;SHT31;31051;51.540;5.852;2023-11-19T16:49:00;11.3;88.4
45315;SHT31;31051;51.540;5.852;2023-11-19T17:02:00;11.2;88.9
45315;SHT31;31051;51.540;5.852;2023-11-19T17:14:59;11.2;89.4
45315;SHT31;31051;51.540;5.852;2023-11-19T17:27:58;11.1;90.2
45315;SHT31;31051;51.540;5.852;2023-11-19T17:40:58;11.1;90.5
45315;SHT31;31051;51.540;5.852;2023-11-19T17:53:57;11.1;90.2
45315;SHT31;31051;51.540;5.852;2023-11-19T18:06:56;11.2;89.4
45315;SHT31;31051;51.540;5.852;2023-11-19T18:19:55;11.2;89.3
45315;SHT31;31051;51.540;5.852;2023-11-19T18:32:55;11.1;89.7
45315;SHT31;31051;51.540;5.852;2023-11-19T18:45:54;11.0;90.3
45315;SHT31;31051;51.540;5.852;2023-11-19T18:58:53;11.0;90.6
45315;SHT31;31051;51.540;5.852;2023-11-19T19:11:53;11.1;90.6
45315;SHT31;31051;51.540;5.852;2023-11-19T19:24:52;11.1;90.7
45315;SHT31;31051;51.540;5.852;2023-11-19T19:37:51;11.2;90.6
45315;SHT31;31051;51.540;5.852;2023-11-19T19:50:51;11.2;91.0
45315;SHT31;31051;51.540;5.852;2023-11-19T20:03:50;11.2;90.6
45315;SHT31;31051;51.540;5.852;2023-11-19T20:16:49;11.5;89.1
45315;SHT31;31051;51.540;5.852;2023-11-19T20:29:49;11.6;88.4
45315;SHT31;31051;51.540;5.852;2023-11-19T20:42:48;11.6;88.0
45315;SHT31;31051;51.540;5.852;2023-11-19T20:55:47;11.8;87.2
45315;SHT31;31051;51.540;5.852;2023-11-19T21:08:46;11.7;87.5
45315;SHT31;31051;51.540;5.852;2023-11-19T21:21:46;11.8;87.8
45315;SHT31;31051;51.540;5.852;2023-11-19T21:34:45;11.7;87.7
45315;SHT31;31051;51.540;5.852;2023-11-19T21:47:44;11.7;88.0
45315;SHT31;31051;51.540;5.852;2023-11-19T22:00:44;11.5;89.4
45315;SHT31;31051;51.540;5.852;2023-11-19T22:13:43;11.5;89.2
45315;SHT31;31051;51.540;5.852;2023-11-19T22:26:42;11.6;88.2
45315;SHT31;31051;51.540;5.852;2023-11-19T22:39:42;11.7;87.8
45315;SHT31;31051;51.540;5.852;2023-11-19T22:52:41;11.6;88.4
45315;SHT31;31051;51.540;5.852;2023-11-19T23:05:40;11.6;88.4
45315;SHT31;31051;51.540;5.852;2023-11-19T23:31:39;11.7;87.4
45315;SHT31;31051;51.540;5.852;2023-11-19T23:44:38;11.7;87.0
45315;SHT31;31051;51.540;5.852;2023-11-19T23:57:38;11.7;86.8
